FW4704 Weather Reports


Display with metric or nautical units.
time (UTC)temp
F
wind
direction
speed
MPH
gust
MPH
rain 1hr
in
rain 24hr
in
rain mn
in
humidity
%
barometer
mb
20260507171525 54 306 4.0 9.0 0.00 0.00 0.00 85 1015.5
20260507170012 54 297 5.0 9.0 0.00 0.00 0.00 85 1015.5
20260507164511 55 306 5.0 9.0 0.00 0.00 0.00 85 1015.5
20260507163012 55 300 4.0 9.0 0.00 0.00 0.00 85 1015.6
20260507161510 55 309 5.0 8.0 0.00 0.00 0.00 86 1015.6
20260507160009 56 292 6.0 10.0 0.00 0.00 0.00 85 1015.5
20260507154510 56 317 7.0 11.0 0.00 0.00 0.00 84 1015.6
20260507153009 56 295 7.0 10.0 0.00 0.00 0.00 84 1015.5
20260507151508 56 305 5.0 9.0 0.00 0.00 0.00 85 1015.5
20260507150008 56 298 8.0 11.0 0.00 0.00 0.00 84 1015.5
20260507144508 56 290 5.0 9.0 0.00 0.00 0.00 84 1015.5
20260507143013 56 289 5.0 10.0 0.00 0.00 0.00 84 1015.5
20260507141505 56 306 6.0 10.0 0.00 0.00 0.00 85 1015.4
20260507140006 55 315 4.0 9.0 0.00 0.00 0.00 85 1015.6
20260507134512 55 292 5.0 9.0 0.00 0.00 0.00 84 1015.5
20260507133004 56 277 4.0 9.0 0.00 0.00 0.00 83 1015.6
20260507131504 56 281 1.0 8.0 0.00 0.00 0.00 82 1015.6
20260507130002 57 301 4.0 10.0 0.00 0.00 0.00 81 1015.6
20260507124508 58 277 4.0 11.0 0.00 0.00 0.00 80 1015.6
20260507123004 59 288 4.0 11.0 0.00 0.00 0.00 79 1015.5
20260507121501 59 297 2.0 7.0 0.00 0.00 0.00 75 1015.3
20260507120103 59 268 5.0 8.0 0.00 0.00 0.00 77 1015.5
20260507114604 58 244 3.0 7.0 0.00 0.00 0.00 77 1015.6
20260507113052 58 288 2.0 4.0 0.00 0.00 0.00 78 1015.5
20260507111549 57 238 2.0 5.0 0.00 0.00 0.00 78 1015.3
20260507110047 57 253 2.0 5.0 0.00 0.00 0.00 78 1015.6
20260507104546 57 145 0.0 2.0 0.00 0.00 0.00 79 1015.6
20260507103045 57 144 2.0 4.0 0.00 0.00 0.00 79 1015.7
20260507101544 57 138 1.0 4.0 0.00 0.00 0.00 81 1015.5
20260507100043 57 134 1.0 5.0 0.00 0.00 0.00 82 1015.5
20260507094549 56 105 1.0 6.0 0.00 0.00 0.00 82 1015.5
20260507093040 56 123 1.0 4.0 0.00 0.00 0.00 83 1015.3
20260507091538 56 80 2.0 7.0 0.00 0.00 0.00 86 1015.3
20260507090034 54 92 2.0 5.0 0.00 0.00 0.00 89 1015.2
20260507084532 54 66 2.0 9.0 0.00 0.00 0.00 90 1015.1
20260507083027 53 73 2.0 5.0 0.00 0.00 0.00 92 1015.0
20260507081531 52 30 2.0 6.0 0.00 0.00 0.00 94 1015.0
20260507080020 51 32 3.0 8.0 0.00 0.00 0.00 95 1014.9
20260507074527 51 24 4.0 8.0 0.00 0.00 0.00 96 1014.8
20260507073015 50 11 6.0 10.0 0.00 0.00 0.00 97 1014.9
20260507071514 50 9 5.0 8.0 0.00 0.00 0.00 98 1014.8
20260507070014 49 9 3.0 6.0 0.00 0.00 0.00 98 1014.7
20260507064512 49 344 4.0 9.0 0.00 0.00 0.00 98 1014.8
20260507063010 49 344 4.0 8.0 0.00 0.00 0.00 99 1014.7
20260507061510 48 355 3.0 8.0 0.00 0.00 0.00 99 1014.5
20260507060008 48 326 4.0 6.0 0.00 0.00 0.00 99 1014.5
20260507054506 48 349 3.0 6.0 0.00 0.00 0.00 100 1014.3
20260507053006 47 350 4.0 5.0 0.00 0.00 0.00 100 1014.3
20260507051504 47 342 3.0 6.0 0.00 0.00 0.00 100 1014.1
20260507050002 46 334 1.0 3.0 0.00 0.00 0.00 99 1013.9
20260507044602 46 336 2.0 4.0 0.00 0.00 0.00 99 1013.7
20260507043101 46 333 0.0 2.0 0.00 0.00 0.00 99 1013.6
20260507041603 46 333 0.0 3.0 0.00 0.00 0.00 99 1013.6
20260507040106 45 331 2.0 5.0 0.00 0.00 0.00 99 1013.5
20260507034618 45 280 0.0 4.0 0.00 0.00 0.00 99 1013.3
20260507033105 45 246 0.0 0.0 0.00 0.00 0.00 99 1013.2
20260507031552 46 246 0.0 0.0 0.00 0.00 0.00 99 1013.1
20260507030052 46 243 0.0 2.0 0.00 0.00 0.00 99 1013.0
20260507024557 46 243 0.0 1.0 0.00 0.00 0.00 99 1013.0
20260507023050 45 243 1.0 2.0 0.00 0.00 0.00 98 1013.0
20260507021557 45 243 1.0 2.0 0.00 0.00 0.00 98 1013.0
20260507020049 45 243 0.0 2.0 0.00 0.00 0.00 98 1012.9
20260507014549 45 243 1.0 3.0 0.00 0.00 0.00 97 1012.8
20260507013103 44 243 1.0 2.0 0.00 0.00 0.00 97 1012.8
20260507011545 45 242 1.0 2.0 0.00 0.00 0.00 96 1012.6
20260507010043 45 242 2.0 3.0 0.00 0.00 0.00 96 1012.6
20260507004540 46 242 1.0 3.0 0.00 0.00 0.00 96 1012.6
20260507003039 46 243 2.0 4.0 0.00 0.00 0.00 96 1012.6
20260507001558 47 256 1.0 3.0 0.00 0.00 0.00 96 1012.6
20260507000033 47 256 0.0 1.0 0.00 0.00 0.00 96 1012.6
20260506234544 48 256 0.0 2.0 0.00 0.00 0.00 96 1012.5
20260506233025 48 256 1.0 4.0 0.00 0.00 0.00 95 1012.2
20260506231523 49 256 2.0 5.0 0.00 0.00 0.00 95 1012.2
20260506230021 49 246 2.0 5.0 0.00 0.00 0.00 95 1012.2
20260506224526 49 248 3.0 5.0 0.00 0.00 0.00 95 1012.3
20260506223018 50 262 2.0 7.0 0.00 0.00 0.00 95 1012.2
20260506221514 50 259 2.0 6.0 0.00 0.00 0.00 95 1012.2
20260506220029 50 241 3.0 6.0 0.00 0.00 0.00 95 1012.2
20260506214512 50 261 3.0 8.0 0.00 0.00 0.00 95 1012.1
20260506213011 50 249 5.0 9.0 0.00 0.00 0.00 95 1012.1
20260506211517 50 267 5.0 9.0 0.00 0.00 0.00 94 1012.0
20260506210009 50 254 6.0 11.0 0.00 0.00 0.00 94 1011.9
20260506204508 50 259 4.0 9.0 0.00 0.00 0.00 94 1011.9
20260506203006 50 281 5.0 9.0 0.00 0.00 0.00 93 1011.8
20260506201506 51 254 5.0 11.0 0.00 0.00 0.00 93 1011.7
20260506200005 51 257 6.0 10.0 0.00 0.00 0.00 93 1011.6
20260506194504 51 246 6.0 10.0 0.00 0.00 0.00 92 1011.5
20260506193003 51 242 7.0 12.0 0.00 0.00 0.00 92 1011.4
20260506191501 52 270 7.0 12.0 0.00 0.00 0.00 91 1011.3
20260506190000 52 252 5.0 12.0 0.00 0.00 0.00 91 1011.1
20260506184600 52 235 6.0 10.0 0.00 0.00 0.00 90 1011.2
20260506183103 53 255 6.0 12.0 0.00 0.00 0.00 89 1011.2
20260506181625 53 248 4.0 14.0 0.00 0.00 0.00 89 1011.0
20260506180055 53 257 4.0 14.0 0.00 0.00 0.00 89 1010.8
20260506174554 54 267 6.0 15.0 0.00 0.00 0.00 89 1010.6
20260506173121 54 261 8.0 15.0 0.00 0.00 0.00 88 1010.5